M I D A S
Marine Information and Data Acquisition System
Tripno 1531 of the Zeeleeuw from 2008-08-04 08:20:09 to 2008-08-04 14:43:14
Back to CruiseResearch ActivitiesStationsMapUnderway DataData graphs

EquipmentUnitsComments
TimeDGPSUTC
LatitudeDGPSDM.mWGS84
LongitudeDGPSDM.mWGS84
SpeedMeteo Stationm/sRelative wind speed
DirectionMeteo StationdegRelative wind direction
TemperatureMeteo Stationdeg CelciusAir temperature
PressureMeteo StationPaAtmospheric pressure
HumidityMeteo Station%Relative humidity
Missing or incorrect values are displayed as -999
Metereological data collected by the RV Zeeleeuw from 2008-08-04 08:22:21 to 2008-08-04 14:46:13
Time Latitude Longitude Speed Direction Temperature Pressure Humidity
2008-08-04 08:23 51°13.64 2°55.992 -999 -999 -999 -999 -999
2008-08-04 08:24 51°13.668 2°55.891 -999 -999 -999 -999 -999
2008-08-04 08:25 51°13.687 2°55.808 -999 -999 -999 -999 -999
2008-08-04 08:26 51°13.691 2°55.762 -999 -999 -999 -999 -999
2008-08-04 08:27 51°13.702 2°55.768 -999 -999 -999 -999 -999
2008-08-04 08:28 51°13.696 2°55.76 -999 -999 -999 -999 -999
2008-08-04 08:29 51°13.706 2°55.748 -999 -999 -999 -999 -999
2008-08-04 08:30 51°13.764 2°55.689 -999 -999 -999 -999 -999
2008-08-04 08:31 51°13.882 2°55.595 -999 -999 -999 -999 -999
2008-08-04 08:32 51°14.02 2°55.493 -999 -999 -999 -999 -999
2008-08-04 08:33 51°14.153 2°55.395 -999 -999 -999 -999 -999
2008-08-04 08:34 51°14.253 2°55.301 -999 -999 -999 -999 -999
2008-08-04 08:35 51°14.329 2°55.166 -999 -999 -999 -999 -999
2008-08-04 08:36 51°14.414 2°54.962 -999 -999 -999 -999 -999
2008-08-04 08:37 51°14.552 2°54.795 -999 -999 -999 -999 -999
2008-08-04 08:38 51°14.72 2°54.705 -999 -999 -999 -999 -999
2008-08-04 08:39 51°14.887 2°54.61 -999 -999 -999 -999 -999
2008-08-04 08:40 51°15.05 2°54.51 -999 -999 -999 -999 -999
2008-08-04 08:41 51°15.199 2°54.408 11.7 27 17.2 -999 74
2008-08-04 08:42 51°15.352 2°54.312 12.1 26 17.2 101000 74
2008-08-04 08:43 51°15.5 2°54.221 12.8 243 17.2 101000 77
2008-08-04 08:44 51°15.649 2°54.124 11.1 25 17.2 100990 78
2008-08-04 08:45 51°15.801 2°54.032 12.9 21 17.2 100990 78
2008-08-04 08:46 51°15.959 2°54.003 10.5 249 17.2 101010 79
2008-08-04 08:47 51°16.112 2°54.054 12.1 250 17.3 101010 80
2008-08-04 08:48 51°16.26 2°54.028 14.1 21 17.2 101010 79
2008-08-04 08:49 51°16.379 2°53.852 14.6 27 17.2 100990 80
2008-08-04 08:50 51°16.501 2°53.662 15.3 26 17.1 101000 78
2008-08-04 08:51 51°16.636 2°53.451 11.4 26 17 100980 79
2008-08-04 08:52 51°16.786 2°53.259 13.6 27 17.1 100980 80
2008-08-04 08:53 51°16.954 2°53.151 13.6 22 17.1 100990 81
2008-08-04 08:54 51°17.126 2°53.172 9.1 249 17.1 101010 81
2008-08-04 08:55 51°17.291 2°53.268 9.5 255 17.1 101020 82
2008-08-04 08:56 51°17.42 2°53.455 5.3 33 17.1 101030 81
2008-08-04 08:57 51°17.524 2°53.683 5.5 261 17 101040 81
2008-08-04 08:58 51°17.636 2°53.903 3.8 268 17 101040 82
2008-08-04 08:59 51°17.751 2°54.086 6.1 261 17.1 101040 82
2008-08-04 09:00 51°17.825 2°54.098 11.4 255 17.2 101020 83
2008-08-04 09:01 51°17.877 2°54.06 10.9 246 17.2 101020 82
2008-08-04 09:02 51°17.911 2°54.022 9.8 254 17.3 101020 83
2008-08-04 09:03 51°17.92 2°53.998 8.2 248 17.3 101020 83
2008-08-04 09:04 51°17.918 2°53.982 8.8 246 17.4 101020 83
2008-08-04 09:05 51°17.908 2°53.976 12.7 259 17.4 101020 83
2008-08-04 09:06 51°17.893 2°53.974 6.5 261 17.3 101020 82
2008-08-04 09:07 51°17.874 2°53.97 6.2 264 17.2 101030 83
2008-08-04 09:08 51°17.855 2°53.969 6.3 270 17.3 101030 84
2008-08-04 09:09 51°17.835 2°53.967 8.2 266 17.2 101020 84
2008-08-04 09:10 51°17.815 2°53.965 8.4 268 17.2 101030 85
2008-08-04 09:11 51°17.796 2°53.963 7.9 266 17.1 101030 85
2008-08-04 09:12 51°17.795 2°53.958 11.4 252 17 101040 84
2008-08-04 09:13 51°17.852 2°53.919 11.4 251 17 101030 84
2008-08-04 09:14 51°17.934 2°53.883 9 250 17 101040 85
2008-08-04 09:15 51°18.02 2°53.85 11.5 249 17.1 101030 85
2008-08-04 09:16 51°18.106 2°53.814 11.5 250 17.1 101030 84
2008-08-04 09:17 51°18.193 2°53.778 8.4 252 17.1 101030 84
2008-08-04 09:18 51°18.28 2°53.742 12.6 250 17.2 101040 85
2008-08-04 09:19 51°18.361 2°53.71 12.6 250 17.2 101040 85
2008-08-04 09:20 51°18.397 2°53.676 9.5 250 17.2 101040 84
2008-08-04 09:21 51°18.411 2°53.653 9.9 256 17.1 101040 83
2008-08-04 09:22 51°18.417 2°53.636 11.1 251 17.2 101050 85
2008-08-04 09:23 51°18.429 2°53.62 9 259 17.3 101040 85
2008-08-04 09:24 51°18.473 2°53.603 10.6 257 17.3 101050 84
2008-08-04 09:25 51°18.531 2°53.586 14.3 256 17.2 101050 84
2008-08-04 09:26 51°18.534 2°53.576 10.3 258 17.3 101040 84
2008-08-04 09:27 51°18.512 2°53.573 10.2 270 17.2 101060 84
2008-08-04 09:28 51°18.5 2°53.568 10.7 261 17 101060 83
2008-08-04 09:29 51°18.501 2°53.56 10.4 259 17 101060 84
2008-08-04 09:30 51°18.502 2°53.554 9.7 258 17 101050 85
2008-08-04 09:31 51°18.504 2°53.55 7.3 265 17.1 101050 85
2008-08-04 09:32 51°18.505 2°53.546 8 270 17 101050 84
2008-08-04 09:33 51°18.509 2°53.541 6.8 263 17 101050 85
2008-08-04 09:34 51°18.512 2°53.537 6.6 263 17.1 101050 87
2008-08-04 09:35 51°18.513 2°53.536 6.9 266 17 101050 86
2008-08-04 09:36 51°18.512 2°53.535 7.6 268 16.9 101060 86
2008-08-04 09:37 51°18.511 2°53.535 7.1 262 17 101050 88
2008-08-04 09:38 51°18.512 2°53.533 8.9 260 17.1 101050 88
2008-08-04 09:39 51°18.513 2°53.533 9.7 267 17 101060 87
2008-08-04 09:40 51°18.513 2°53.533 6.5 266 16.8 101040 87
2008-08-04 09:41 51°18.512 2°53.532 6.8 264 16.8 101060 87
2008-08-04 09:42 51°18.513 2°53.532 7.1 265 16.9 101050 88
2008-08-04 09:43 51°18.513 2°53.532 7.6 266 16.9 101060 88
2008-08-04 09:44 51°18.513 2°53.531 8.3 267 16.8 101050 87
2008-08-04 09:45 51°18.513 2°53.531 7.1 267 16.7 101050 86
2008-08-04 09:46 51°18.513 2°53.53 6.8 265 16.6 101060 87
2008-08-04 09:47 51°18.514 2°53.53 6.6 264 16.6 101060 87
2008-08-04 09:48 51°18.516 2°53.529 6.2 262 16.7 101060 88
2008-08-04 09:49 51°18.517 2°53.527 6 262 16.8 101070 88
2008-08-04 09:50 51°18.517 2°53.527 9.2 270 16.9 101060 88
2008-08-04 09:51 51°18.518 2°53.527 8 268 16.7 101060 86
2008-08-04 09:52 51°18.518 2°53.526 7.4 267 16.7 101060 87
2008-08-04 09:53 51°18.517 2°53.526 6.8 265 16.7 101060 87
2008-08-04 09:54 51°18.519 2°53.526 7.3 268 16.8 101070 88
2008-08-04 09:55 51°18.521 2°53.525 7.7 267 16.8 101070 88
2008-08-04 09:56 51°18.52 2°53.525 8.8 269 16.7 101070 87
2008-08-04 09:57 51°18.521 2°53.525 10.1 270 16.9 101060 89
2008-08-04 09:58 51°18.519 2°53.525 6.1 266 16.7 101070 87
2008-08-04 09:59 51°18.518 2°53.525 8.5 27 16.8 101080 88
2008-08-04 10:00 51°18.519 2°53.526 9.3 343 16.8 101070 88
2008-08-04 10:01 51°18.518 2°53.525 7.2 268 16.7 101070 87
2008-08-04 10:02 51°18.519 2°53.526 8.7 270 16.9 101080 88
2008-08-04 10:03 51°18.519 2°53.525 9.3 269 16.7 101060 87
2008-08-04 10:04 51°18.518 2°53.525 8.9 269 16.7 101070 87
2008-08-04 10:05 51°18.52 2°53.525 9.9 27 16.8 101070 89
2008-08-04 10:06 51°18.521 2°53.524 9.7 31 16.7 101080 87
2008-08-04 10:07 51°18.522 2°53.524 7.9 270 16.6 101070 87
2008-08-04 10:08 51°18.522 2°53.524 7.4 268 16.7 101070 88
2008-08-04 10:09 51°18.521 2°53.524 9.2 270 16.7 101070 88
2008-08-04 10:10 51°18.52 2°53.524 7.8 268 16.8 101080 90
2008-08-04 10:11 51°18.52 2°53.525 9.1 270 16.8 101070 88
2008-08-04 10:12 51°18.521 2°53.525 10.2 270 16.7 101070 87
2008-08-04 10:13 51°18.522 2°53.524 9.6 30 16.7 101080 86
2008-08-04 10:14 51°18.523 2°53.525 9.4 270 16.8 101070 86
2008-08-04 10:15 51°18.524 2°53.525 8.8 269 16.8 101070 86
2008-08-04 10:16 51°18.522 2°53.524 9.1 331 16.8 101080 86
2008-08-04 10:17 51°18.52 2°53.525 8.3 21 16.8 101070 86
2008-08-04 10:18 51°18.52 2°53.525 8.6 268 16.8 101070 86
2008-08-04 10:19 51°18.521 2°53.525 9.2 24 16.9 101070 85
2008-08-04 10:20 51°18.521 2°53.525 9.4 268 16.8 101070 84
2008-08-04 10:21 51°18.519 2°53.525 8.3 270 16.8 101070 84
2008-08-04 10:22 51°18.519 2°53.525 10 24 16.9 101080 84
2008-08-04 10:23 51°18.521 2°53.525 9.6 270 16.9 101090 86
2008-08-04 10:24 51°18.522 2°53.524 9 268 16.8 101080 84
2008-08-04 10:25 51°18.522 2°53.523 7.7 269 16.9 101080 85
2008-08-04 10:26 51°18.523 2°53.522 7.5 269 16.9 101080 86
2008-08-04 10:27 51°18.523 2°53.522 8 270 17 101080 87
2008-08-04 10:28 51°18.522 2°53.522 8.7 269 16.9 101080 86
2008-08-04 10:29 51°18.52 2°53.523 8.3 270 16.9 101080 86
2008-08-04 10:30 51°18.521 2°53.525 8.9 267 16.9 101080 86
2008-08-04 10:31 51°18.522 2°53.526 7 265 16.9 101080 86
2008-08-04 10:32 51°18.522 2°53.526 11 27 16.8 101090 85
2008-08-04 10:33 51°18.522 2°53.526 8.3 268 17 101080 87
2008-08-04 10:34 51°18.522 2°53.526 10 270 16.9 101090 85
2008-08-04 10:35 51°18.52 2°53.526 9.9 27 16.9 101090 85
2008-08-04 10:36 51°18.52 2°53.526 10.1 28 16.9 101090 85
2008-08-04 10:37 51°18.521 2°53.526 8.3 266 16.9 101090 84
2008-08-04 10:38 51°18.522 2°53.526 6.7 268 16.9 101080 85
2008-08-04 10:39 51°18.521 2°53.526 8.1 268 16.9 101090 85
2008-08-04 10:40 51°18.519 2°53.526 7.7 269 17 101080 86
2008-08-04 10:41 51°18.518 2°53.526 8.4 271 17 101100 87
2008-08-04 10:42 51°18.519 2°53.526 7.9 269 17 101090 85
2008-08-04 10:43 51°18.52 2°53.526 9 270 17 101100 85
2008-08-04 10:44 51°18.519 2°53.525 8.9 269 17 101100 86
2008-08-04 10:45 51°18.519 2°53.525 8.2 324 17 101090 86
2008-08-04 10:46 51°18.52 2°53.525 7.7 269 17 101090 86
2008-08-04 10:47 51°18.522 2°53.524 7.4 269 17.1 101100 86
2008-08-04 10:48 51°18.524 2°53.524 8.2 28 17.1 101090 86
2008-08-04 10:49 51°18.523 2°53.525 6.7 34 17.1 101100 86
2008-08-04 10:50 51°18.521 2°53.524 6.1 263 17.2 101100 87
2008-08-04 10:51 51°18.518 2°53.525 7.7 24 17.3 101090 87
2008-08-04 10:52 51°18.519 2°53.525 6.8 266 17.1 101090 84
2008-08-04 10:53 51°18.519 2°53.526 9 269 17.2 101100 86
2008-08-04 10:54 51°18.52 2°53.526 9.9 25 17.2 101100 86
2008-08-04 10:55 51°18.52 2°53.526 9.9 269 17.2 101110 86
2008-08-04 10:56 51°18.522 2°53.526 7.9 261 17.2 101100 85
2008-08-04 10:57 51°18.522 2°53.526 9.4 270 17.3 101100 87
2008-08-04 10:58 51°18.522 2°53.526 9.4 18 17.2 101110 86
2008-08-04 10:59 51°18.521 2°53.526 9.5 270 17.2 101110 85
2008-08-04 11:00 51°18.522 2°53.526 7.2 269 17.1 101100 85
2008-08-04 11:01 51°18.52 2°53.526 6.7 30 17.2 101100 85
2008-08-04 11:02 51°18.519 2°53.527 9 270 17.2 101110 86
2008-08-04 11:03 51°18.519 2°53.526 7.5 267 17.3 101110 87
2008-08-04 11:04 51°18.52 2°53.526 10.8 266 17.1 101100 86
2008-08-04 11:05 51°18.522 2°53.526 8.4 270 17.1 101100 84
2008-08-04 11:06 51°18.522 2°53.526 9 269 17.1 101100 85
2008-08-04 11:07 51°18.521 2°53.526 9.3 270 17.1 101100 86
2008-08-04 11:08 51°18.521 2°53.526 9.9 269 17.1 101110 84
2008-08-04 11:09 51°18.521 2°53.526 8.7 270 17.1 101100 85
2008-08-04 11:10 51°18.522 2°53.526 8.6 269 17 101100 84
2008-08-04 11:11 51°18.522 2°53.526 8.3 268 17.1 101120 85
2008-08-04 11:12 51°18.52 2°53.526 9.7 270 17.3 101110 87
2008-08-04 11:13 51°18.521 2°53.527 8.9 267 17.4 101110 87
2008-08-04 11:14 51°18.522 2°53.526 9.2 28 17.3 101110 86
2008-08-04 11:15 51°18.524 2°53.526 6.8 267 17.3 101110 87
2008-08-04 11:16 51°18.522 2°53.527 7.4 265 17.4 101110 87
2008-08-04 11:17 51°18.521 2°53.526 7.6 270 17.5 101110 87
2008-08-04 11:18 51°18.52 2°53.526 7.7 268 17.4 101110 86
2008-08-04 11:19 51°18.519 2°53.528 10.4 270 17.4 101110 86
2008-08-04 11:20 51°18.519 2°53.528 8.9 333 17.4 101100 85
2008-08-04 11:21 51°18.519 2°53.527 9.3 269 17.4 101100 85
2008-08-04 11:22 51°18.52 2°53.528 7.5 265 17.3 101110 83
2008-08-04 11:23 51°18.521 2°53.527 8.8 269 17.3 101110 83
2008-08-04 11:24 51°18.521 2°53.528 8 266 17.4 101110 85
2008-08-04 11:25 51°18.522 2°53.527 6.7 267 17.5 101110 86
2008-08-04 11:26 51°18.52 2°53.528 5.4 265 17.6 101110 85
2008-08-04 11:27 51°18.518 2°53.528 7.9 267 17.6 101120 85
2008-08-04 11:28 51°18.516 2°53.529 7.8 265 17.5 101100 84
2008-08-04 11:29 51°18.516 2°53.529 6.4 264 17.5 101110 84
2008-08-04 11:30 51°18.518 2°53.529 9.3 261 17.5 101110 84
2008-08-04 11:31 51°18.517 2°53.53 9.2 269 17.7 101110 85
2008-08-04 11:32 51°18.517 2°53.53 7.7 266 17.7 101110 85
2008-08-04 11:33 51°18.517 2°53.53 9 262 17.6 101120 84
2008-08-04 11:34 51°18.517 2°53.531 10.7 269 17.6 101120 83
2008-08-04 11:35 51°18.516 2°53.533 8.6 264 17.6 101120 84
2008-08-04 11:36 51°18.514 2°53.534 8.9 262 17.7 101130 85
2008-08-04 11:37 51°18.513 2°53.536 8.2 264 17.7 101130 84
2008-08-04 11:38 51°18.513 2°53.535 6.9 262 17.6 101130 84
2008-08-04 11:39 51°18.513 2°53.537 8.7 262 17.6 101120 84
2008-08-04 11:40 51°18.512 2°53.537 9.4 260 17.6 101130 85
2008-08-04 11:41 51°18.513 2°53.538 7.6 262 17.6 101130 85
2008-08-04 11:42 51°18.514 2°53.537 11.5 260 17.7 101130 86
2008-08-04 11:43 51°18.513 2°53.538 13.1 259 17.7 101120 86
2008-08-04 11:44 51°18.511 2°53.541 9.1 257 17.7 101130 85
2008-08-04 11:45 51°18.509 2°53.545 9.2 262 17.7 101120 86
2008-08-04 11:46 51°18.508 2°53.547 10.6 259 17.6 101130 86
2008-08-04 11:47 51°18.507 2°53.549 10.2 261 17.7 101120 87
2008-08-04 11:48 51°18.508 2°53.55 10 261 17.6 101130 86
2008-08-04 11:49 51°18.509 2°53.55 10.5 260 17.6 101120 86
2008-08-04 11:50 51°18.509 2°53.551 14.1 258 17.6 101120 86
2008-08-04 11:51 51°18.507 2°53.557 8.7 261 17.6 101130 86
2008-08-04 11:52 51°18.505 2°53.563 14.2 257 17.6 101120 86
2008-08-04 11:53 51°18.507 2°53.567 9.3 261 17.6 101130 85
2008-08-04 11:54 51°18.508 2°53.57 11.3 260 17.6 101130 86
2008-08-04 11:55 51°18.509 2°53.573 9.3 256 17.6 101120 86
2008-08-04 11:56 51°18.508 2°53.577 13.3 257 17.7 101130 87
2008-08-04 11:57 51°18.509 2°53.58 12 258 17.7 101130 86
2008-08-04 11:58 51°18.51 2°53.583 11.2 257 17.7 101120 85
2008-08-04 11:59 51°18.511 2°53.584 11.2 255 17.6 101130 84
2008-08-04 12:00 51°18.513 2°53.586 11.2 254 17.7 101130 85
2008-08-04 12:01 51°18.514 2°53.586 10.5 22 17.9 101130 87
2008-08-04 12:02 51°18.515 2°53.59 13.7 257 17.9 101130 85
2008-08-04 12:03 51°18.515 2°53.593 13.1 255 17.8 101130 84
2008-08-04 12:04 51°18.517 2°53.596 12.7 253 17.8 101140 84
2008-08-04 12:05 51°18.519 2°53.601 10.7 250 17.8 101130 84
2008-08-04 12:06 51°18.52 2°53.606 13.2 246 17.9 101130 84
2008-08-04 12:07 51°18.52 2°53.614 12.5 251 17.9 101140 84
2008-08-04 12:08 51°18.519 2°53.619 13.2 252 17.8 101130 83
2008-08-04 12:09 51°18.522 2°53.622 12.9 251 17.9 101130 84
2008-08-04 12:10 51°18.525 2°53.629 9.6 245 17.9 101120 83
2008-08-04 12:11 51°18.526 2°53.634 9.2 248 17.8 101130 82
2008-08-04 12:12 51°18.53 2°53.635 10.4 28 18 101130 83
2008-08-04 12:13 51°18.534 2°53.636 12.6 23 17.9 101120 81
2008-08-04 12:14 51°18.537 2°53.637 11.9 249 17.9 101120 82
2008-08-04 12:15 51°18.541 2°53.64 12.1 28 17.9 101120 82
2008-08-04 12:16 51°18.544 2°53.639 10.5 23 18 101120 83
2008-08-04 12:17 51°18.548 2°53.638 10.6 27 17.9 101130 84
2008-08-04 12:18 51°18.549 2°53.641 10.2 319 17.9 101130 84
2008-08-04 12:19 51°18.548 2°53.642 8.5 323 17.9 101130 85
2008-08-04 12:20 51°18.548 2°53.642 11.8 322 17.9 101120 85
2008-08-04 12:21 51°18.548 2°53.642 9.1 322 17.9 101130 85
2008-08-04 12:22 51°18.55 2°53.641 11.7 317 17.9 101120 83
2008-08-04 12:23 51°18.552 2°53.639 9.5 316 17.8 101120 81
2008-08-04 12:24 51°18.553 2°53.64 11.1 322 17.9 101120 82
2008-08-04 12:25 51°18.552 2°53.641 8.1 329 17.9 101120 82
2008-08-04 12:26 51°18.551 2°53.64 9.6 334 17.9 101120 83
2008-08-04 12:27 51°18.549 2°53.642 8.6 331 17.9 101130 82
2008-08-04 12:28 51°18.545 2°53.643 9.4 333 17.8 101130 82
2008-08-04 12:29 51°18.541 2°53.643 9.2 328 17.8 101130 81
2008-08-04 12:30 51°18.541 2°53.643 9.7 321 17.9 101130 78
2008-08-04 12:31 51°18.543 2°53.643 10.2 24 18.1 101130 83
2008-08-04 12:32 51°18.548 2°53.641 11.8 28 17.9 101110 72
2008-08-04 12:33 51°18.552 2°53.641 9.9 317 18 101130 74
2008-08-04 12:34 51°18.553 2°53.643 10.8 324 18 101130 75
2008-08-04 12:35 51°18.552 2°53.641 12.1 331 18.1 101140 77
2008-08-04 12:36 51°18.55 2°53.643 11.7 330 18 101140 75
2008-08-04 12:37 51°18.549 2°53.643 10.3 326 18.1 101140 77
2008-08-04 12:38 51°18.549 2°53.642 8.8 320 18.3 101140 80
2008-08-04 12:39 51°18.548 2°53.644 11.6 326 18.3 101140 81
2008-08-04 12:40 51°18.549 2°53.644 11.9 318 18.2 101130 78
2008-08-04 12:41 51°18.551 2°53.641 10.3 320 18.2 101140 80
2008-08-04 12:42 51°18.552 2°53.641 10.5 324 18.2 101140 79
2008-08-04 12:43 51°18.554 2°53.643 11.6 324 18 101130 76
2008-08-04 12:44 51°18.552 2°53.645 9.5 330 18.1 101140 75
2008-08-04 12:45 51°18.548 2°53.643 12.6 329 18.2 101140 76
2008-08-04 12:46 51°18.547 2°53.645 12 328 18.1 101150 73
2008-08-04 12:47 51°18.552 2°53.643 11.1 319 18.1 101140 74
2008-08-04 12:48 51°18.556 2°53.639 10.1 325 18.2 101140 75
2008-08-04 12:49 51°18.554 2°53.642 9.9 336 18.1 101140 75
2008-08-04 12:50 51°18.548 2°53.645 9.4 340 18.2 101150 78
2008-08-04 12:51 51°18.544 2°53.644 8.6 327 18.1 101150 76
2008-08-04 12:52 51°18.547 2°53.644 8 322 18 101150 73
2008-08-04 12:53 51°18.551 2°53.642 10.7 319 18.2 101140 75
2008-08-04 12:54 51°18.553 2°53.641 9.3 322 18.2 101160 74
2008-08-04 12:55 51°18.555 2°53.642 7.9 325 18.2 101150 74
2008-08-04 12:56 51°18.554 2°53.642 9.5 328 18.3 101150 75
2008-08-04 12:57 51°18.551 2°53.644 8.7 334 18.2 101150 72
2008-08-04 12:58 51°18.547 2°53.644 10.5 327 18.2 101150 72
2008-08-04 12:59 51°18.551 2°53.643 10 321 18.1 101140 68
2008-08-04 13:00 51°18.554 2°53.64 9.1 330 18.3 101150 70
2008-08-04 13:01 51°18.551 2°53.643 10.5 337 18.5 101140 71
2008-08-04 13:02 51°18.549 2°53.643 7.6 331 18.4 101140 69
2008-08-04 13:03 51°18.549 2°53.642 11 328 18.4 101140 69
2008-08-04 13:04 51°18.551 2°53.641 11 326 18.4 101150 69
2008-08-04 13:05 51°18.552 2°53.643 11.4 333 18.5 101150 70
2008-08-04 13:06 51°18.549 2°53.643 12.2 332 18.5 101140 71
2008-08-04 13:07 51°18.549 2°53.643 10.6 326 18.4 101140 68
2008-08-04 13:08 51°18.552 2°53.643 9.7 324 18.4 101140 68
2008-08-04 13:09 51°18.553 2°53.642 9.5 330 18.6 101150 69
2008-08-04 13:10 51°18.554 2°53.642 8.8 332 18.7 101140 71
2008-08-04 13:11 51°18.555 2°53.64 11 328 18.6 101150 72
2008-08-04 13:12 51°18.557 2°53.639 10.9 332 18.6 101130 71
2008-08-04 13:13 51°18.558 2°53.64 9.9 334 18.7 101150 73
2008-08-04 13:14 51°18.556 2°53.64 10.1 334 18.6 101140 71
2008-08-04 13:15 51°18.557 2°53.64 9 328 18.5 101140 69
2008-08-04 13:16 51°18.556 2°53.642 8.9 335 18.6 101150 70
2008-08-04 13:17 51°18.551 2°53.644 11.4 336 18.7 101140 71
2008-08-04 13:18 51°18.55 2°53.643 9.6 332 18.5 101140 68
2008-08-04 13:19 51°18.55 2°53.644 11.2 333 18.6 101140 69
2008-08-04 13:20 51°18.552 2°53.642 14.5 328 18.6 101150 69
2008-08-04 13:21 51°18.555 2°53.64 11 329 18.6 101150 68
2008-08-04 13:22 51°18.555 2°53.641 10.6 333 18.6 101150 69
2008-08-04 13:23 51°18.553 2°53.642 8.7 333 18.6 101140 69
2008-08-04 13:24 51°18.553 2°53.642 9.6 329 18.7 101140 69
2008-08-04 13:25 51°18.556 2°53.64 13.7 331 18.6 101140 68
2008-08-04 13:26 51°18.557 2°53.64 10.6 333 18.6 101140 69
2008-08-04 13:27 51°18.554 2°53.641 14 337 18.6 101130 68
2008-08-04 13:28 51°18.553 2°53.642 13.7 333 18.5 101130 66
2008-08-04 13:29 51°18.554 2°53.642 13.4 334 18.6 101140 67
2008-08-04 13:30 51°18.556 2°53.64 11.7 330 18.6 101140 68
2008-08-04 13:31 51°18.555 2°53.642 9.9 335 18.6 101140 68
2008-08-04 13:32 51°18.553 2°53.643 15.2 334 18.6 101130 69
2008-08-04 13:33 51°18.553 2°53.642 13.8 332 18.5 101140 68
2008-08-04 13:34 51°18.556 2°53.641 14.6 326 18.5 101130 69
2008-08-04 13:35 51°18.558 2°53.64 10.3 332 18.6 101140 70
2008-08-04 13:36 51°18.558 2°53.64 11.5 333 18.5 101130 68
2008-08-04 13:37 51°18.556 2°53.641 11.8 333 18.6 101130 69
2008-08-04 13:38 51°18.557 2°53.641 13.2 327 18.6 101130 69
2008-08-04 13:39 51°18.559 2°53.639 14.3 330 18.5 101140 68
2008-08-04 13:40 51°18.559 2°53.64 13.2 336 18.5 101150 67
2008-08-04 13:41 51°18.556 2°53.642 13.3 338 18.6 101140 69
2008-08-04 13:42 51°18.549 2°53.644 15.1 339 18.5 101110 70
2008-08-04 13:43 51°18.546 2°53.642 14 332 18.5 101130 71
2008-08-04 13:44 51°18.55 2°53.635 12.1 334 18.4 101120 71
2008-08-04 13:45 51°18.545 2°53.609 13.2 332 18.5 101130 72
2008-08-04 13:46 51°18.543 2°53.594 15.1 332 18.4 101130 70
2008-08-04 13:47 51°18.549 2°53.575 14.1 322 18.5 101130 72
2008-08-04 13:48 51°18.526 2°53.57 12.1 14 18.6 101100 74
2008-08-04 13:49 51°18.506 2°53.73 7.5 29 18.4 101160 72
2008-08-04 13:50 51°18.516 2°53.884 10.5 25 18.4 101160 75
2008-08-04 13:51 51°18.525 2°54.021 11.7 26 18.3 101170 71
2008-08-04 13:52 51°18.533 2°54.144 11.1 44 18.2 101180 71
2008-08-04 13:53 51°18.54 2°54.259 11.9 41 18.3 101170 73
2008-08-04 13:54 51°18.542 2°54.365 9.3 40 18.3 101170 72
2008-08-04 13:55 51°18.547 2°54.495 10.9 27 18.3 101170 71
2008-08-04 13:56 51°18.557 2°54.63 11.1 25 18.3 101170 73
2008-08-04 13:57 51°18.571 2°54.767 10.3 26 18.3 101170 71
2008-08-04 13:58 51°18.582 2°54.905 9.5 28 18.3 101170 71
2008-08-04 13:59 51°18.597 2°55.041 10.6 21 18.3 101160 72
2008-08-04 14:00 51°18.613 2°55.178 10.5 22 18.4 101170 73
2008-08-04 14:01 51°18.63 2°55.314 9.5 24 18.3 101170 72
2008-08-04 14:02 51°18.643 2°55.45 9.2 24 18.3 101180 71
2008-08-04 14:03 51°18.656 2°55.59 9 44 18.3 101170 70
2008-08-04 14:04 51°18.666 2°55.725 9.6 27 18.3 101180 70
2008-08-04 14:05 51°18.675 2°55.857 9.2 43 18.3 101180 69
2008-08-04 14:06 51°18.685 2°55.982 9.2 25 18.5 101170 73
2008-08-04 14:07 51°18.697 2°56.105 9.6 26 18.5 101170 71
2008-08-04 14:08 51°18.709 2°56.229 11.5 26 18.5 101170 73
2008-08-04 14:09 51°18.712 2°56.355 11.6 27 18.4 101180 70
2008-08-04 14:10 51°18.681 2°56.424 12.9 358 18.5 101140 73
2008-08-04 14:11 51°18.656 2°56.382 13.3 333 18.4 101130 71
2008-08-04 14:12 51°18.645 2°56.18 16.5 338 18.6 101120 71
2008-08-04 14:13 51°18.544 2°55.987 16.2 342 18.7 101120 72
2008-08-04 14:14 51°18.467 2°55.767 17.7 334 18.6 101120 69
2008-08-04 14:15 51°18.456 2°55.506 21.2 330 18.6 101120 67
2008-08-04 14:16 51°18.38 2°55.302 17.8 347 18.6 101110 68
2008-08-04 14:17 51°18.256 2°55.139 17.4 345 18.5 101090 68
2008-08-04 14:18 51°18.138 2°54.968 17.8 342 18.6 101130 70
2008-08-04 14:19 51°18.021 2°54.794 15.9 344 18.6 101130 71
2008-08-04 14:20 51°17.904 2°54.618 16 343 18.6 101110 71
2008-08-04 14:21 51°17.796 2°54.435 17.2 343 18.6 101120 73
2008-08-04 14:22 51°17.683 2°54.241 16.4 345 18.6 101110 72
2008-08-04 14:23 51°17.571 2°54.048 19.2 343 18.6 101120 74
2008-08-04 14:24 51°17.459 2°53.855 15.9 341 18.7 101130 76
2008-08-04 14:25 51°17.347 2°53.664 16.7 343 18.6 101120 74
2008-08-04 14:26 51°17.236 2°53.477 17.6 346 18.6 101120 74
2008-08-04 14:27 51°17.1 2°53.328 15.1 354 18.5 101110 75
2008-08-04 14:28 51°16.929 2°53.303 13.9 357 18.4 101120 77
2008-08-04 14:29 51°16.752 2°53.362 11.4 5 18.4 101110 78
2008-08-04 14:30 51°16.573 2°53.453 10.4 6 18.3 101130 77
2008-08-04 14:31 51°16.4 2°53.59 12.5 9 18.3 101140 78
2008-08-04 14:32 51°16.231 2°53.726 11.8 8 18.3 101130 78
2008-08-04 14:33 51°16.053 2°53.862 12.6 6 18.3 101140 79
2008-08-04 14:34 51°15.878 2°53.99 10 7 18.4 101140 81
2008-08-04 14:35 51°15.701 2°54.111 9.1 6 18.3 101140 79
2008-08-04 14:36 51°15.525 2°54.23 13.5 9 18.3 101130 78
2008-08-04 14:37 51°15.348 2°54.348 14 7 18.3 101130 79
2008-08-04 14:38 51°15.173 2°54.464 11.1 6 18.4 101120 78
2008-08-04 14:39 51°15.003 2°54.583 8.3 5 18.4 101130 79
2008-08-04 14:40 51°14.853 2°54.697 12.5 9 18.4 101130 78
2008-08-04 14:41 51°14.68 2°54.82 8.3 6 18.5 101140 80
2008-08-04 14:42 51°14.512 2°54.958 10.7 8 18.4 101130 77
2008-08-04 14:43 51°14.348 2°55.142 11.1 21 18.5 101140 78
2008-08-04 14:44 51°14.213 2°55.327 11.2 16 18.5 101160 78
2008-08-04 14:45 51°14.096 2°55.43 5.7 354 18.6 101180 77